sensor_id;sensor_type;location;lat;lon;timestamp;P1;durP1;ratioP1;P2;durP2;ratioP2
2404;SDS011;1213;43.206;27.922;2024-03-29T00:00:39;32.73;;;17.50;;
2404;SDS011;1213;43.206;27.922;2024-03-29T00:03:05;26.70;;;14.33;;
2404;SDS011;1213;43.206;27.922;2024-03-29T00:05:32;31.60;;;14.60;;
2404;SDS011;1213;43.206;27.922;2024-03-29T00:07:58;35.03;;;16.53;;
2404;SDS011;1213;43.206;27.922;2024-03-29T00:10:23;39.50;;;18.33;;
2404;SDS011;1213;43.206;27.922;2024-03-29T00:12:49;34.77;;;16.73;;
2404;SDS011;1213;43.206;27.922;2024-03-29T00:15:14;25.40;;;14.30;;
2404;SDS011;1213;43.206;27.922;2024-03-29T00:17:39;28.17;;;15.17;;
2404;SDS011;1213;43.206;27.922;2024-03-29T00:20:05;43.57;;;15.33;;
2404;SDS011;1213;43.206;27.922;2024-03-29T00:22:31;33.67;;;12.87;;
2404;SDS011;1213;43.206;27.922;2024-03-29T00:24:57;35.57;;;13.03;;
2404;SDS011;1213;43.206;27.922;2024-03-29T00:27:22;25.43;;;13.23;;
2404;SDS011;1213;43.206;27.922;2024-03-29T00:29:50;20.70;;;12.60;;
2404;SDS011;1213;43.206;27.922;2024-03-29T00:32:18;21.30;;;10.90;;
2404;SDS011;1213;43.206;27.922;2024-03-29T00:34:44;26.07;;;12.57;;
2404;SDS011;1213;43.206;27.922;2024-03-29T00:37:10;33.70;;;14.30;;
2404;SDS011;1213;43.206;27.922;2024-03-29T00:39:36;27.10;;;13.53;;
2404;SDS011;1213;43.206;27.922;2024-03-29T00:42:01;34.73;;;12.73;;
2404;SDS011;1213;43.206;27.922;2024-03-29T00:44:27;21.83;;;12.37;;
2404;SDS011;1213;43.206;27.922;2024-03-29T00:46:53;23.70;;;12.67;;
2404;SDS011;1213;43.206;27.922;2024-03-29T00:49:18;27.40;;;12.43;;
2404;SDS011;1213;43.206;27.922;2024-03-29T00:51:44;25.77;;;10.43;;
2404;SDS011;1213;43.206;27.922;2024-03-29T00:54:09;17.53;;;8.57;;
2404;SDS011;1213;43.206;27.922;2024-03-29T00:56:35;24.07;;;10.87;;
2404;SDS011;1213;43.206;27.922;2024-03-29T00:59:00;29.20;;;12.87;;
2404;SDS011;1213;43.206;27.922;2024-03-29T01:01:25;22.80;;;11.17;;
2404;SDS011;1213;43.206;27.922;2024-03-29T01:03:51;25.10;;;11.00;;
2404;SDS011;1213;43.206;27.922;2024-03-29T01:06:17;19.33;;;10.57;;
2404;SDS011;1213;43.206;27.922;2024-03-29T01:08:43;19.30;;;10.13;;
2404;SDS011;1213;43.206;27.922;2024-03-29T01:11:09;25.60;;;10.67;;
2404;SDS011;1213;43.206;27.922;2024-03-29T01:13:34;20.43;;;10.30;;
2404;SDS011;1213;43.206;27.922;2024-03-29T01:16:01;30.60;;;11.57;;
2404;SDS011;1213;43.206;27.922;2024-03-29T01:18:27;24.40;;;10.17;;
2404;SDS011;1213;43.206;27.922;2024-03-29T01:20:52;17.00;;;10.30;;
2404;SDS011;1213;43.206;27.922;2024-03-29T01:23:18;22.30;;;11.20;;
2404;SDS011;1213;43.206;27.922;2024-03-29T01:25:43;15.50;;;9.53;;
2404;SDS011;1213;43.206;27.922;2024-03-29T01:28:08;25.33;;;10.27;;
2404;SDS011;1213;43.206;27.922;2024-03-29T01:30:34;21.67;;;9.87;;
2404;SDS011;1213;43.206;27.922;2024-03-29T01:32:59;15.90;;;9.87;;
2404;SDS011;1213;43.206;27.922;2024-03-29T01:35:25;23.10;;;10.23;;
2404;SDS011;1213;43.206;27.922;2024-03-29T01:37:50;20.03;;;9.73;;
2404;SDS011;1213;43.206;27.922;2024-03-29T01:40:15;20.53;;;10.80;;
2404;SDS011;1213;43.206;27.922;2024-03-29T01:42:41;19.10;;;10.23;;
2404;SDS011;1213;43.206;27.922;2024-03-29T01:45:06;16.47;;;9.27;;
2404;SDS011;1213;43.206;27.922;2024-03-29T01:47:33;21.30;;;9.40;;
2404;SDS011;1213;43.206;27.922;2024-03-29T01:49:59;26.13;;;11.10;;
2404;SDS011;1213;43.206;27.922;2024-03-29T01:52:27;25.90;;;10.70;;
2404;SDS011;1213;43.206;27.922;2024-03-29T01:54:54;16.63;;;10.03;;
2404;SDS011;1213;43.206;27.922;2024-03-29T01:57:20;17.10;;;10.57;;
2404;SDS011;1213;43.206;27.922;2024-03-29T01:59:46;26.97;;;8.97;;
2404;SDS011;1213;43.206;27.922;2024-03-29T02:02:12;20.90;;;9.93;;
2404;SDS011;1213;43.206;27.922;2024-03-29T02:04:38;26.70;;;9.10;;
2404;SDS011;1213;43.206;27.922;2024-03-29T02:07:04;19.70;;;10.60;;
2404;SDS011;1213;43.206;27.922;2024-03-29T02:09:29;18.33;;;9.33;;
2404;SDS011;1213;43.206;27.922;2024-03-29T02:11:55;21.30;;;10.57;;
2404;SDS011;1213;43.206;27.922;2024-03-29T02:14:20;20.40;;;10.30;;
2404;SDS011;1213;43.206;27.922;2024-03-29T02:16:46;36.53;;;11.20;;
2404;SDS011;1213;43.206;27.922;2024-03-29T02:19:11;26.50;;;10.90;;
2404;SDS011;1213;43.206;27.922;2024-03-29T02:21:37;21.90;;;11.53;;
2404;SDS011;1213;43.206;27.922;2024-03-29T02:24:07;17.03;;;10.63;;
2404;SDS011;1213;43.206;27.922;2024-03-29T02:26:34;18.30;;;10.70;;
2404;SDS011;1213;43.206;27.922;2024-03-29T02:29:01;18.07;;;9.87;;
2404;SDS011;1213;43.206;27.922;2024-03-29T02:31:27;22.33;;;10.53;;
2404;SDS011;1213;43.206;27.922;2024-03-29T02:33:52;15.97;;;9.87;;
2404;SDS011;1213;43.206;27.922;2024-03-29T02:36:18;17.77;;;10.90;;
2404;SDS011;1213;43.206;27.922;2024-03-29T02:38:44;26.40;;;12.20;;
2404;SDS011;1213;43.206;27.922;2024-03-29T02:41:10;20.43;;;9.73;;
2404;SDS011;1213;43.206;27.922;2024-03-29T02:43:35;17.67;;;10.07;;
2404;SDS011;1213;43.206;27.922;2024-03-29T02:46:01;30.83;;;12.27;;
2404;SDS011;1213;43.206;27.922;2024-03-29T02:48:26;27.23;;;11.03;;
2404;SDS011;1213;43.206;27.922;2024-03-29T02:50:51;21.60;;;11.20;;
2404;SDS011;1213;43.206;27.922;2024-03-29T02:53:17;18.30;;;12.10;;
2404;SDS011;1213;43.206;27.922;2024-03-29T02:55:42;18.40;;;11.60;;
2404;SDS011;1213;43.206;27.922;2024-03-29T02:58:08;27.87;;;12.77;;
2404;SDS011;1213;43.206;27.922;2024-03-29T03:00:33;20.47;;;12.37;;
2404;SDS011;1213;43.206;27.922;2024-03-29T03:02:59;26.10;;;12.17;;
2404;SDS011;1213;43.206;27.922;2024-03-29T03:05:24;29.30;;;14.53;;
2404;SDS011;1213;43.206;27.922;2024-03-29T03:07:49;27.37;;;16.90;;
2404;SDS011;1213;43.206;27.922;2024-03-29T03:10:34;46.07;;;20.10;;
2404;SDS011;1213;43.206;27.922;2024-03-29T03:13:35;36.93;;;20.97;;
2404;SDS011;1213;43.206;27.922;2024-03-29T03:16:00;35.07;;;19.50;;
2404;SDS011;1213;43.206;27.922;2024-03-29T03:18:25;37.93;;;20.70;;
2404;SDS011;1213;43.206;27.922;2024-03-29T03:20:54;43.43;;;22.33;;
2404;SDS011;1213;43.206;27.922;2024-03-29T03:23:22;37.03;;;21.57;;
2404;SDS011;1213;43.206;27.922;2024-03-29T03:25:57;47.97;;;22.53;;
2404;SDS011;1213;43.206;27.922;2024-03-29T03:28:29;32.77;;;19.60;;
2404;SDS011;1213;43.206;27.922;2024-03-29T03:30:54;47.33;;;23.00;;
2404;SDS011;1213;43.206;27.922;2024-03-29T03:33:20;34.60;;;22.70;;
2404;SDS011;1213;43.206;27.922;2024-03-29T03:35:46;41.53;;;27.20;;
2404;SDS011;1213;43.206;27.922;2024-03-29T03:38:31;59.27;;;24.20;;
2404;SDS011;1213;43.206;27.922;2024-03-29T03:40:59;43.47;;;26.40;;
2404;SDS011;1213;43.206;27.922;2024-03-29T03:43:25;42.30;;;25.87;;
2404;SDS011;1213;43.206;27.922;2024-03-29T03:45:50;49.73;;;25.77;;
2404;SDS011;1213;43.206;27.922;2024-03-29T03:48:16;47.00;;;27.97;;
2404;SDS011;1213;43.206;27.922;2024-03-29T03:50:42;48.43;;;29.83;;
2404;SDS011;1213;43.206;27.922;2024-03-29T03:53:07;51.97;;;30.80;;
2404;SDS011;1213;43.206;27.922;2024-03-29T03:55:36;54.50;;;28.10;;
2404;SDS011;1213;43.206;27.922;2024-03-29T03:58:02;47.37;;;27.53;;
2404;SDS011;1213;43.206;27.922;2024-03-29T04:00:28;50.43;;;26.80;;
2404;SDS011;1213;43.206;27.922;2024-03-29T04:02:53;58.30;;;30.33;;
2404;SDS011;1213;43.206;27.922;2024-03-29T04:05:19;44.20;;;23.23;;
2404;SDS011;1213;43.206;27.922;2024-03-29T04:07:45;54.03;;;30.30;;
2404;SDS011;1213;43.206;27.922;2024-03-29T04:10:11;52.40;;;19.50;;
2404;SDS011;1213;43.206;27.922;2024-03-29T04:12:37;43.53;;;24.63;;
2404;SDS011;1213;43.206;27.922;2024-03-29T04:15:03;46.43;;;26.00;;
2404;SDS011;1213;43.206;27.922;2024-03-29T04:17:29;47.63;;;22.90;;
2404;SDS011;1213;43.206;27.922;2024-03-29T04:19:56;36.67;;;22.33;;
2404;SDS011;1213;43.206;27.922;2024-03-29T04:22:22;49.10;;;22.53;;
2404;SDS011;1213;43.206;27.922;2024-03-29T04:24:48;45.23;;;25.03;;
2404;SDS011;1213;43.206;27.922;2024-03-29T04:27:13;54.37;;;20.20;;
2404;SDS011;1213;43.206;27.922;2024-03-29T04:29:39;53.40;;;24.90;;
2404;SDS011;1213;43.206;27.922;2024-03-29T04:32:04;62.67;;;36.17;;
2404;SDS011;1213;43.206;27.922;2024-03-29T04:34:30;53.10;;;33.23;;
2404;SDS011;1213;43.206;27.922;2024-03-29T04:36:55;87.10;;;43.80;;
2404;SDS011;1213;43.206;27.922;2024-03-29T04:39:21;92.70;;;45.30;;
2404;SDS011;1213;43.206;27.922;2024-03-29T04:41:47;82.60;;;48.83;;
2404;SDS011;1213;43.206;27.922;2024-03-29T04:44:13;76.63;;;45.90;;
2404;SDS011;1213;43.206;27.922;2024-03-29T04:46:49;70.97;;;39.17;;
2404;SDS011;1213;43.206;27.922;2024-03-29T04:49:14;79.87;;;46.07;;
2404;SDS011;1213;43.206;27.922;2024-03-29T04:51:42;87.03;;;45.27;;
2404;SDS011;1213;43.206;27.922;2024-03-29T04:54:08;95.43;;;48.60;;
2404;SDS011;1213;43.206;27.922;2024-03-29T04:56:33;73.23;;;39.83;;
2404;SDS011;1213;43.206;27.922;2024-03-29T04:59:01;75.20;;;38.97;;
2404;SDS011;1213;43.206;27.922;2024-03-29T05:01:26;83.77;;;38.70;;
2404;SDS011;1213;43.206;27.922;2024-03-29T05:03:52;65.63;;;33.10;;
2404;SDS011;1213;43.206;27.922;2024-03-29T05:06:18;48.00;;;21.63;;
2404;SDS011;1213;43.206;27.922;2024-03-29T05:08:43;58.90;;;31.13;;
2404;SDS011;1213;43.206;27.922;2024-03-29T05:11:09;51.43;;;27.57;;
2404;SDS011;1213;43.206;27.922;2024-03-29T05:13:36;45.93;;;25.43;;
2404;SDS011;1213;43.206;27.922;2024-03-29T05:16:03;63.33;;;32.47;;
2404;SDS011;1213;43.206;27.922;2024-03-29T05:18:29;59.97;;;28.03;;
2404;SDS011;1213;43.206;27.922;2024-03-29T05:20:54;65.20;;;37.40;;
2404;SDS011;1213;43.206;27.922;2024-03-29T05:23:20;71.30;;;37.80;;
2404;SDS011;1213;43.206;27.922;2024-03-29T05:25:45;75.97;;;38.63;;
2404;SDS011;1213;43.206;27.922;2024-03-29T05:28:13;76.50;;;39.17;;
2404;SDS011;1213;43.206;27.922;2024-03-29T05:30:39;72.00;;;44.53;;
2404;SDS011;1213;43.206;27.922;2024-03-29T05:33:04;74.90;;;45.63;;
2404;SDS011;1213;43.206;27.922;2024-03-29T05:35:31;66.23;;;37.43;;
2404;SDS011;1213;43.206;27.922;2024-03-29T05:37:57;50.23;;;28.73;;
2404;SDS011;1213;43.206;27.922;2024-03-29T05:40:23;56.73;;;29.37;;
2404;SDS011;1213;43.206;27.922;2024-03-29T05:42:50;54.80;;;27.70;;
2404;SDS011;1213;43.206;27.922;2024-03-29T05:45:25;40.70;;;21.27;;
2404;SDS011;1213;43.206;27.922;2024-03-29T05:47:55;46.53;;;29.40;;
2404;SDS011;1213;43.206;27.922;2024-03-29T05:50:22;48.87;;;26.40;;
2404;SDS011;1213;43.206;27.922;2024-03-29T05:52:49;27.80;;;17.43;;
2404;SDS011;1213;43.206;27.922;2024-03-29T05:55:15;39.33;;;18.93;;
2404;SDS011;1213;43.206;27.922;2024-03-29T05:57:41;39.50;;;18.60;;
2404;SDS011;1213;43.206;27.922;2024-03-29T06:00:07;38.37;;;17.80;;
2404;SDS011;1213;43.206;27.922;2024-03-29T06:02:36;30.10;;;16.27;;
2404;SDS011;1213;43.206;27.922;2024-03-29T06:05:02;28.27;;;10.87;;
2404;SDS011;1213;43.206;27.922;2024-03-29T06:07:28;17.83;;;11.00;;
2404;SDS011;1213;43.206;27.922;2024-03-29T06:09:54;18.47;;;11.80;;
2404;SDS011;1213;43.206;27.922;2024-03-29T06:12:20;17.30;;;8.97;;
2404;SDS011;1213;43.206;27.922;2024-03-29T06:14:45;20.77;;;9.30;;
2404;SDS011;1213;43.206;27.922;2024-03-29T06:17:29;25.50;;;10.90;;
2404;SDS011;1213;43.206;27.922;2024-03-29T06:19:56;15.40;;;6.50;;
2404;SDS011;1213;43.206;27.922;2024-03-29T06:22:24;25.47;;;8.70;;
2404;SDS011;1213;43.206;27.922;2024-03-29T06:24:51;20.43;;;8.17;;
2404;SDS011;1213;43.206;27.922;2024-03-29T06:27:20;10.90;;;7.53;;
2404;SDS011;1213;43.206;27.922;2024-03-29T06:29:47;21.83;;;8.20;;
2404;SDS011;1213;43.206;27.922;2024-03-29T06:32:14;13.63;;;6.87;;
2404;SDS011;1213;43.206;27.922;2024-03-29T06:34:39;13.67;;;6.30;;
2404;SDS011;1213;43.206;27.922;2024-03-29T06:37:05;13.20;;;7.93;;
2404;SDS011;1213;43.206;27.922;2024-03-29T06:39:30;14.33;;;8.70;;
2404;SDS011;1213;43.206;27.922;2024-03-29T06:41:56;21.20;;;8.70;;
2404;SDS011;1213;43.206;27.922;2024-03-29T06:44:21;21.97;;;10.07;;
2404;SDS011;1213;43.206;27.922;2024-03-29T06:46:47;18.17;;;8.00;;
2404;SDS011;1213;43.206;27.922;2024-03-29T06:49:12;15.50;;;8.30;;
2404;SDS011;1213;43.206;27.922;2024-03-29T06:51:41;18.40;;;10.70;;
2404;SDS011;1213;43.206;27.922;2024-03-29T06:54:06;24.43;;;11.70;;
2404;SDS011;1213;43.206;27.922;2024-03-29T06:56:31;16.80;;;7.90;;
2404;SDS011;1213;43.206;27.922;2024-03-29T06:58:57;25.50;;;10.93;;
2404;SDS011;1213;43.206;27.922;2024-03-29T07:01:23;33.17;;;10.60;;
2404;SDS011;1213;43.206;27.922;2024-03-29T07:03:50;27.40;;;10.30;;
2404;SDS011;1213;43.206;27.922;2024-03-29T07:06:15;16.53;;;9.10;;
2404;SDS011;1213;43.206;27.922;2024-03-29T07:08:41;23.53;;;9.57;;
2404;SDS011;1213;43.206;27.922;2024-03-29T07:11:06;19.13;;;6.40;;
2404;SDS011;1213;43.206;27.922;2024-03-29T07:13:32;20.27;;;9.30;;
2404;SDS011;1213;43.206;27.922;2024-03-29T07:15:59;24.63;;;9.90;;
2404;SDS011;1213;43.206;27.922;2024-03-29T07:18:25;13.50;;;8.43;;
2404;SDS011;1213;43.206;27.922;2024-03-29T07:20:51;9.80;;;4.13;;
2404;SDS011;1213;43.206;27.922;2024-03-29T07:23:16;14.43;;;5.47;;
2404;SDS011;1213;43.206;27.922;2024-03-29T07:25:45;8.83;;;3.53;;
2404;SDS011;1213;43.206;27.922;2024-03-29T07:28:21;7.77;;;3.10;;
2404;SDS011;1213;43.206;27.922;2024-03-29T07:30:46;7.37;;;2.50;;
2404;SDS011;1213;43.206;27.922;2024-03-29T07:33:12;8.80;;;2.03;;
2404;SDS011;1213;43.206;27.922;2024-03-29T07:35:40;7.43;;;1.90;;
2404;SDS011;1213;43.206;27.922;2024-03-29T07:38:06;9.47;;;3.90;;
2404;SDS011;1213;43.206;27.922;2024-03-29T07:40:32;8.00;;;3.30;;
2404;SDS011;1213;43.206;27.922;2024-03-29T07:42:57;16.90;;;4.87;;
2404;SDS011;1213;43.206;27.922;2024-03-29T07:45:24;5.90;;;3.57;;
2404;SDS011;1213;43.206;27.922;2024-03-29T07:47:50;10.70;;;4.33;;
2404;SDS011;1213;43.206;27.922;2024-03-29T07:50:18;6.33;;;2.00;;
2404;SDS011;1213;43.206;27.922;2024-03-29T07:52:47;12.27;;;3.13;;
2404;SDS011;1213;43.206;27.922;2024-03-29T07:55:13;4.70;;;1.27;;
2404;SDS011;1213;43.206;27.922;2024-03-29T07:57:39;1.97;;;1.43;;
2404;SDS011;1213;43.206;27.922;2024-03-29T08:00:04;5.97;;;1.70;;
2404;SDS011;1213;43.206;27.922;2024-03-29T08:02:31;2.20;;;1.40;;
2404;SDS011;1213;43.206;27.922;2024-03-29T08:04:57;4.63;;;1.43;;
2404;SDS011;1213;43.206;27.922;2024-03-29T08:07:23;8.13;;;1.10;;
2404;SDS011;1213;43.206;27.922;2024-03-29T08:09:50;3.60;;;1.43;;
2404;SDS011;1213;43.206;27.922;2024-03-29T08:12:16;3.13;;;1.13;;
2404;SDS011;1213;43.206;27.922;2024-03-29T08:14:41;5.53;;;1.47;;
2404;SDS011;1213;43.206;27.922;2024-03-29T08:17:07;3.00;;;1.47;;
2404;SDS011;1213;43.206;27.922;2024-03-29T08:19:35;2.17;;;1.23;;
2404;SDS011;1213;43.206;27.922;2024-03-29T08:22:01;3.33;;;1.07;;
2404;SDS011;1213;43.206;27.922;2024-03-29T08:24:27;1.40;;;1.10;;
2404;SDS011;1213;43.206;27.922;2024-03-29T08:26:52;9.70;;;1.30;;
2404;SDS011;1213;43.206;27.922;2024-03-29T08:29:18;2.77;;;1.27;;
2404;SDS011;1213;43.206;27.922;2024-03-29T08:31:43;5.33;;;1.30;;
2404;SDS011;1213;43.206;27.922;2024-03-29T08:34:09;6.47;;;1.17;;
2404;SDS011;1213;43.206;27.922;2024-03-29T08:36:38;2.13;;;0.97;;
2404;SDS011;1213;43.206;27.922;2024-03-29T08:39:04;1.57;;;1.10;;
2404;SDS011;1213;43.206;27.922;2024-03-29T08:41:29;5.27;;;1.37;;
2404;SDS011;1213;43.206;27.922;2024-03-29T08:43:55;3.00;;;0.90;;
2404;SDS011;1213;43.206;27.922;2024-03-29T08:46:20;1.50;;;1.20;;
2404;SDS011;1213;43.206;27.922;2024-03-29T08:48:46;3.40;;;1.20;;
2404;SDS011;1213;43.206;27.922;2024-03-29T08:51:11;5.23;;;1.20;;
2404;SDS011;1213;43.206;27.922;2024-03-29T08:53:37;2.53;;;1.20;;
2404;SDS011;1213;43.206;27.922;2024-03-29T08:56:03;4.97;;;2.10;;
2404;SDS011;1213;43.206;27.922;2024-03-29T08:58:29;2.30;;;1.00;;
2404;SDS011;1213;43.206;27.922;2024-03-29T09:00:55;2.33;;;1.50;;
2404;SDS011;1213;43.206;27.922;2024-03-29T09:03:24;2.60;;;1.33;;
2404;SDS011;1213;43.206;27.922;2024-03-29T09:05:50;2.10;;;1.10;;
2404;SDS011;1213;43.206;27.922;2024-03-29T09:08:19;8.23;;;1.77;;
2404;SDS011;1213;43.206;27.922;2024-03-29T09:10:45;7.43;;;2.07;;
2404;SDS011;1213;43.206;27.922;2024-03-29T09:13:10;8.80;;;2.40;;
2404;SDS011;1213;43.206;27.922;2024-03-29T09:15:36;5.10;;;2.43;;
2404;SDS011;1213;43.206;27.922;2024-03-29T09:18:05;7.33;;;1.97;;
2404;SDS011;1213;43.206;27.922;2024-03-29T09:20:55;8.47;;;2.17;;
2404;SDS011;1213;43.206;27.922;2024-03-29T09:23:21;1.83;;;1.30;;
2404;SDS011;1213;43.206;27.922;2024-03-29T09:25:48;1.80;;;1.43;;
2404;SDS011;1213;43.206;27.922;2024-03-29T09:28:13;3.30;;;1.10;;
2404;SDS011;1213;43.206;27.922;2024-03-29T09:30:39;1.57;;;1.17;;
2404;SDS011;1213;43.206;27.922;2024-03-29T09:33:04;3.43;;;1.03;;
2404;SDS011;1213;43.206;27.922;2024-03-29T09:35:34;1.57;;;1.30;;
2404;SDS011;1213;43.206;27.922;2024-03-29T09:37:59;4.83;;;1.60;;
2404;SDS011;1213;43.206;27.922;2024-03-29T09:40:25;6.30;;;2.50;;
2404;SDS011;1213;43.206;27.922;2024-03-29T09:42:52;2.07;;;1.87;;
2404;SDS011;1213;43.206;27.922;2024-03-29T09:45:19;5.93;;;2.97;;
2404;SDS011;1213;43.206;27.922;2024-03-29T09:47:47;7.53;;;1.83;;
2404;SDS011;1213;43.206;27.922;2024-03-29T09:50:16;2.70;;;1.10;;
2404;SDS011;1213;43.206;27.922;2024-03-29T09:52:42;4.17;;;1.20;;
2404;SDS011;1213;43.206;27.922;2024-03-29T09:55:08;8.93;;;1.10;;
2404;SDS011;1213;43.206;27.922;2024-03-29T09:57:34;6.57;;;1.53;;
2404;SDS011;1213;43.206;27.922;2024-03-29T10:00:01;2.03;;;1.83;;
2404;SDS011;1213;43.206;27.922;2024-03-29T10:02:30;2.10;;;1.03;;
2404;SDS011;1213;43.206;27.922;2024-03-29T10:04:57;3.10;;;1.30;;
2404;SDS011;1213;43.206;27.922;2024-03-29T10:07:28;12.67;;;1.70;;
2404;SDS011;1213;43.206;27.922;2024-03-29T10:09:55;6.67;;;1.80;;
2404;SDS011;1213;43.206;27.922;2024-03-29T10:12:21;9.13;;;2.00;;
2404;SDS011;1213;43.206;27.922;2024-03-29T10:14:47;8.90;;;1.93;;
2404;SDS011;1213;43.206;27.922;2024-03-29T10:17:45;1.50;;;1.10;;
2404;SDS011;1213;43.206;27.922;2024-03-29T10:20:15;2.90;;;1.40;;
2404;SDS011;1213;43.206;27.922;2024-03-29T10:22:42;4.70;;;1.87;;
2404;SDS011;1213;43.206;27.922;2024-03-29T10:25:09;5.17;;;1.60;;
2404;SDS011;1213;43.206;27.922;2024-03-29T10:27:35;13.73;;;1.90;;
2404;SDS011;1213;43.206;27.922;2024-03-29T10:30:00;9.97;;;1.80;;
2404;SDS011;1213;43.206;27.922;2024-03-29T10:32:25;4.90;;;1.27;;
2404;SDS011;1213;43.206;27.922;2024-03-29T10:34:51;4.40;;;1.43;;
2404;SDS011;1213;43.206;27.922;2024-03-29T10:37:19;2.60;;;1.20;;
2404;SDS011;1213;43.206;27.922;2024-03-29T10:39:52;2.80;;;1.30;;
2404;SDS011;1213;43.206;27.922;2024-03-29T10:42:19;5.83;;;1.57;;
2404;SDS011;1213;43.206;27.922;2024-03-29T10:44:46;3.13;;;1.43;;
2404;SDS011;1213;43.206;27.922;2024-03-29T10:47:17;4.50;;;1.63;;
2404;SDS011;1213;43.206;27.922;2024-03-29T10:49:44;3.00;;;1.23;;
2404;SDS011;1213;43.206;27.922;2024-03-29T10:52:12;2.60;;;1.10;;
2404;SDS011;1213;43.206;27.922;2024-03-29T10:54:42;6.90;;;1.60;;
2404;SDS011;1213;43.206;27.922;2024-03-29T10:57:11;3.20;;;1.27;;
2404;SDS011;1213;43.206;27.922;2024-03-29T10:59:44;1.70;;;1.07;;
2404;SDS011;1213;43.206;27.922;2024-03-29T11:05:09;5.43;;;1.30;;
2404;SDS011;1213;43.206;27.922;2024-03-29T11:07:39;6.00;;;1.60;;
2404;SDS011;1213;43.206;27.922;2024-03-29T11:10:06;3.27;;;1.70;;
2404;SDS011;1213;43.206;27.922;2024-03-29T11:12:58;5.57;;;1.80;;
2404;SDS011;1213;43.206;27.922;2024-03-29T11:15:30;5.87;;;2.20;;
2404;SDS011;1213;43.206;27.922;2024-03-29T11:17:56;6.67;;;2.03;;
2404;SDS011;1213;43.206;27.922;2024-03-29T11:20:26;4.83;;;3.70;;
2404;SDS011;1213;43.206;27.922;2024-03-29T11:23:03;3.97;;;1.20;;
2404;SDS011;1213;43.206;27.922;2024-03-29T11:25:45;2.80;;;1.77;;
2404;SDS011;1213;43.206;27.922;2024-03-29T11:28:22;7.30;;;1.87;;
2404;SDS011;1213;43.206;27.922;2024-03-29T11:31:08;3.87;;;1.57;;
2404;SDS011;1213;43.206;27.922;2024-03-29T11:38:41;3.13;;;1.43;;
2404;SDS011;1213;43.206;27.922;2024-03-29T11:41:16;4.63;;;2.13;;
2404;SDS011;1213;43.206;27.922;2024-03-29T11:43:42;10.23;;;1.90;;
2404;SDS011;1213;43.206;27.922;2024-03-29T11:46:12;5.63;;;1.73;;
2404;SDS011;1213;43.206;27.922;2024-03-29T11:48:39;6.73;;;1.37;;
2404;SDS011;1213;43.206;27.922;2024-03-29T11:51:09;1.67;;;1.20;;
2404;SDS011;1213;43.206;27.922;2024-03-29T11:53:36;9.60;;;2.73;;
2404;SDS011;1213;43.206;27.922;2024-03-29T11:56:03;3.27;;;1.20;;
2404;SDS011;1213;43.206;27.922;2024-03-29T11:58:32;3.33;;;1.60;;
2404;SDS011;1213;43.206;27.922;2024-03-29T12:00:58;2.07;;;1.20;;
2404;SDS011;1213;43.206;27.922;2024-03-29T12:03:26;3.90;;;1.50;;
2404;SDS011;1213;43.206;27.922;2024-03-29T12:05:54;4.43;;;2.07;;
2404;SDS011;1213;43.206;27.922;2024-03-29T12:08:23;5.77;;;1.27;;
2404;SDS011;1213;43.206;27.922;2024-03-29T12:10:49;1.87;;;1.10;;
2404;SDS011;1213;43.206;27.922;2024-03-29T12:13:16;4.40;;;2.00;;
2404;SDS011;1213;43.206;27.922;2024-03-29T12:15:44;2.97;;;1.40;;
2404;SDS011;1213;43.206;27.922;2024-03-29T12:18:10;2.07;;;1.10;;
2404;SDS011;1213;43.206;27.922;2024-03-29T12:20:38;5.73;;;1.53;;
2404;SDS011;1213;43.206;27.922;2024-03-29T12:23:04;1.70;;;1.00;;
2404;SDS011;1213;43.206;27.922;2024-03-29T12:25:35;5.10;;;2.53;;
2404;SDS011;1213;43.206;27.922;2024-03-29T12:28:03;2.67;;;0.90;;
2404;SDS011;1213;43.206;27.922;2024-03-29T12:30:29;3.83;;;1.60;;
2404;SDS011;1213;43.206;27.922;2024-03-29T12:33:08;1.97;;;1.60;;
2404;SDS011;1213;43.206;27.922;2024-03-29T12:35:36;3.17;;;1.13;;
2404;SDS011;1213;43.206;27.922;2024-03-29T12:38:03;11.00;;;1.87;;
2404;SDS011;1213;43.206;27.922;2024-03-29T12:40:30;1.70;;;1.40;;
2404;SDS011;1213;43.206;27.922;2024-03-29T12:43:02;4.60;;;3.43;;
2404;SDS011;1213;43.206;27.922;2024-03-29T12:45:35;3.60;;;1.70;;
2404;SDS011;1213;43.206;27.922;2024-03-29T12:48:02;5.50;;;1.10;;
2404;SDS011;1213;43.206;27.922;2024-03-29T12:50:29;2.17;;;1.30;;
2404;SDS011;1213;43.206;27.922;2024-03-29T12:52:59;3.27;;;2.00;;
2404;SDS011;1213;43.206;27.922;2024-03-29T12:55:27;3.80;;;1.73;;
2404;SDS011;1213;43.206;27.922;2024-03-29T12:57:55;11.50;;;3.37;;
2404;SDS011;1213;43.206;27.922;2024-03-29T13:00:22;5.10;;;1.40;;
2404;SDS011;1213;43.206;27.922;2024-03-29T13:02:48;2.43;;;1.23;;
2404;SDS011;1213;43.206;27.922;2024-03-29T13:05:15;2.50;;;1.50;;
2404;SDS011;1213;43.206;27.922;2024-03-29T13:07:41;5.90;;;1.37;;
2404;SDS011;1213;43.206;27.922;2024-03-29T13:10:08;2.53;;;1.50;;
2404;SDS011;1213;43.206;27.922;2024-03-29T13:12:44;2.53;;;1.60;;
2404;SDS011;1213;43.206;27.922;2024-03-29T13:15:18;6.17;;;1.40;;
2404;SDS011;1213;43.206;27.922;2024-03-29T13:17:45;1.73;;;1.50;;
2404;SDS011;1213;43.206;27.922;2024-03-29T13:20:12;3.23;;;1.47;;
2404;SDS011;1213;43.206;27.922;2024-03-29T13:22:40;1.60;;;1.27;;
2404;SDS011;1213;43.206;27.922;2024-03-29T13:25:11;3.07;;;2.00;;
2404;SDS011;1213;43.206;27.922;2024-03-29T13:27:40;4.20;;;1.47;;
2404;SDS011;1213;43.206;27.922;2024-03-29T13:30:07;3.60;;;1.20;;
2404;SDS011;1213;43.206;27.922;2024-03-29T13:32:36;3.40;;;1.50;;
2404;SDS011;1213;43.206;27.922;2024-03-29T13:35:03;7.33;;;1.53;;
2404;SDS011;1213;43.206;27.922;2024-03-29T13:37:34;4.40;;;1.63;;
2404;SDS011;1213;43.206;27.922;2024-03-29T13:40:12;4.57;;;1.60;;
2404;SDS011;1213;43.206;27.922;2024-03-29T13:42:39;2.30;;;1.40;;
2404;SDS011;1213;43.206;27.922;2024-03-29T13:45:05;1.93;;;1.40;;
2404;SDS011;1213;43.206;27.922;2024-03-29T13:47:35;2.07;;;1.20;;
2404;SDS011;1213;43.206;27.922;2024-03-29T13:50:01;2.77;;;1.50;;
2404;SDS011;1213;43.206;27.922;2024-03-29T13:52:29;2.50;;;1.53;;
2404;SDS011;1213;43.206;27.922;2024-03-29T13:54:55;4.50;;;1.43;;
2404;SDS011;1213;43.206;27.922;2024-03-29T13:57:20;5.37;;;2.07;;
2404;SDS011;1213;43.206;27.922;2024-03-29T13:59:46;3.53;;;2.00;;
2404;SDS011;1213;43.206;27.922;2024-03-29T14:02:12;3.70;;;2.30;;
2404;SDS011;1213;43.206;27.922;2024-03-29T14:04:39;9.63;;;7.00;;
2404;SDS011;1213;43.206;27.922;2024-03-29T14:07:06;4.87;;;1.90;;
2404;SDS011;1213;43.206;27.922;2024-03-29T14:09:35;5.60;;;2.10;;
2404;SDS011;1213;43.206;27.922;2024-03-29T14:12:02;2.63;;;1.17;;
2404;SDS011;1213;43.206;27.922;2024-03-29T14:14:29;3.73;;;1.43;;
2404;SDS011;1213;43.206;27.922;2024-03-29T14:16:56;4.97;;;1.87;;
2404;SDS011;1213;43.206;27.922;2024-03-29T14:19:22;3.63;;;1.93;;
2404;SDS011;1213;43.206;27.922;2024-03-29T14:21:47;2.20;;;1.83;;
2404;SDS011;1213;43.206;27.922;2024-03-29T14:24:13;2.33;;;1.37;;
2404;SDS011;1213;43.206;27.922;2024-03-29T14:26:38;6.47;;;2.27;;
2404;SDS011;1213;43.206;27.922;2024-03-29T14:29:04;2.43;;;1.40;;
2404;SDS011;1213;43.206;27.922;2024-03-29T14:31:31;2.80;;;1.40;;
2404;SDS011;1213;43.206;27.922;2024-03-29T14:33:57;4.80;;;1.70;;
2404;SDS011;1213;43.206;27.922;2024-03-29T14:36:22;2.90;;;2.33;;
2404;SDS011;1213;43.206;27.922;2024-03-29T14:38:48;2.37;;;1.40;;
2404;SDS011;1213;43.206;27.922;2024-03-29T14:41:13;4.80;;;1.90;;
2404;SDS011;1213;43.206;27.922;2024-03-29T14:43:39;2.30;;;1.43;;
2404;SDS011;1213;43.206;27.922;2024-03-29T14:46:04;5.00;;;1.40;;
2404;SDS011;1213;43.206;27.922;2024-03-29T14:48:30;3.60;;;1.73;;
2404;SDS011;1213;43.206;27.922;2024-03-29T14:50:55;3.00;;;1.57;;
2404;SDS011;1213;43.206;27.922;2024-03-29T14:53:23;2.27;;;1.67;;
2404;SDS011;1213;43.206;27.922;2024-03-29T14:55:49;4.73;;;1.97;;